Time;durP1;ratioP1;P1;durP2;ratioP2;P2;SDS_P1;SDS_P2;PMS_P1;PMS_P2;Temp;Humidity;BMP_temperature;BMP_pressure;BME280_temperature;BME280_humidity;BME280_pressure;Samples;Min_cycle;Max_cycle;Signal;HPM_P1;HPM_P2
2022/02/10 00:14:04;;;;;;;192.95;90.57;;;;;;;2.37;72.49;95154.41;1527048;92;21094;-47
2022/02/10 00:19:07;;;;;;;194.57;89.50;;;;;;;2.52;72.43;95154.63;1494700;92;21146;-48
2022/02/10 00:21:29;;;;;;;185.48;91.50;;;;;;;2.54;72.08;95150.94;1510162;92;21050;-48
2022/02/10 00:34:54;;;;;;;196.98;98.95;;;;;;;2.26;72.63;95163.09;1524129;92;21055;-48
2022/02/10 00:37:25;;;;;;;199.80;97.27;;;;;;;2.23;73.01;95156.52;1526583;92;21561;-47
2022/02/10 00:40:49;;;;;;;173.47;83.67;;;;;;;2.36;73.37;95158.28;1527813;92;21035;-48
2022/02/10 00:42:26;;;;;;;169.35;84.80;;;;;;;2.51;72.72;95162.58;1502294;93;21025;-48
2022/02/10 00:44:54;;;;;;;192.80;94.55;;;;;;;2.47;72.19;95157.73;1526425;92;21169;-48
2022/02/10 00:47:21;;;;;;;182.88;92.92;;;;;;;2.29;72.23;95155.56;1511584;93;20999;-49
2022/02/10 00:49:48;;;;;;;162.77;79.53;;;;;;;2.16;72.41;95153.76;1510988;92;21070;-47
2022/02/10 00:52:15;;;;;;;155.90;79.10;;;;;;;2.11;73.06;95154.73;1512115;93;21549;-48
2022/02/10 00:54:43;;;;;;;177.45;90.67;;;;;;;2.06;72.75;95155.08;1510435;93;21052;-48
2022/02/10 00:57:12;;;;;;;166.30;89.42;;;;;;;1.97;73.51;95154.08;1529199;92;21480;-48
2022/02/10 01:02:31;;;;;;;167.25;84.07;;;;;;;2.27;73.58;95145.64;1525170;92;22304;-48
2022/02/10 01:31:43;;;;;;;207.87;102.92;;;;;;;2.38;72.33;95113.88;1513740;92;21032;-48
2022/02/10 01:34:10;;;;;;;174.45;89.15;;;;;;;2.41;72.60;95124.75;1529233;92;21212;-47
2022/02/10 01:36:37;;;;;;;172.62;89.10;;;;;;;2.52;72.22;95113.30;1526500;92;21176;-48
2022/02/10 01:39:05;;;;;;;167.25;85.42;;;;;;;2.47;72.24;95118.36;1507076;92;21164;-50
2022/02/10 01:58:35;;;;;;;148.60;77.30;;;;;;;2.33;72.29;95106.88;1513575;94;21057;-48
2022/02/10 02:03:28;;;;;;;173.53;96.25;;;;;;;2.33;73.09;95099.33;1498513;94;21248;-48
2022/02/10 02:06:00;;;;;;;161.20;94.35;;;;;;;2.41;73.25;95103.59;1496847;93;21156;-48
2022/02/10 02:08:29;;;;;;;173.43;97.55;;;;;;;2.54;73.08;95101.47;1515630;93;21187;-48
2022/02/10 02:10:56;;;;;;;164.45;92.62;;;;;;;2.64;73.23;95093.92;1515829;93;21132;-48
2022/02/10 02:13:23;;;;;;;156.95;88.30;;;;;;;2.79;72.90;95087.89;1507286;93;21266;-48
2022/02/10 02:15:51;;;;;;;168.68;94.72;;;;;;;2.86;72.54;95086.55;1514689;93;21166;-48
2022/02/10 02:18:19;;;;;;;169.87;91.80;;;;;;;2.90;71.99;95084.59;1514104;93;21108;-49
2022/02/10 02:20:49;;;;;;;161.60;87.20;;;;;;;2.82;71.91;95078.96;1514821;92;21109;-49
2022/02/10 02:23:16;;;;;;;149.35;82.40;;;;;;;2.79;72.24;95076.46;1517551;92;21091;-49
2022/02/10 02:25:46;;;;;;;168.85;92.17;;;;;;;2.86;72.24;95077.05;1516930;93;21033;-49
2022/02/10 02:28:14;;;;;;;177.50;98.45;;;;;;;2.93;71.98;95075.66;1514864;93;21190;-48
2022/02/10 02:36:33;;;;;;;156.75;84.07;;;;;;;2.52;72.08;95065.02;1510950;93;21105;-48
2022/02/10 02:38:51;;;;;;;136.62;71.30;;;;;;;2.50;71.87;95057.25;1506903;93;21601;-48
2022/02/10 03:06:03;;;;;;;150.95;84.35;;;;;;;1.98;72.91;95050.43;1515770;93;21163;-49
2022/02/10 03:08:27;;;;;;;148.85;80.28;;;;;;;2.01;72.41;95053.16;1513260;92;21205;-48
2022/02/10 03:11:03;;;;;;;155.15;86.60;;;;;;;1.98;72.52;95055.86;1514999;93;21608;-48
2022/02/10 03:13:34;;;;;;;159.97;86.30;;;;;;;1.89;72.12;95053.52;1518036;93;21073;-48
2022/02/10 03:18:38;;;;;;;117.82;65.47;;;;;;;1.83;72.64;95052.91;1504183;92;21024;-48
2022/02/10 03:21:10;;;;;;;119.60;65.40;;;;;;;1.91;72.83;95049.05;1516593;93;21551;-47
2022/02/10 04:22:59;;;;;;;202.10;104.58;;;;;;;1.34;71.72;95041.89;1529620;92;21060;-48
2022/02/10 04:28:13;;;;;;;222.70;114.37;;;;;;;1.25;71.84;95044.76;1511891;92;21392;-47
2022/02/10 04:42:14;;;;;;;;;;;;;;;;;;;;;
2022/02/10 05:02:26;;;;;;;178.02;98.65;;;;;;;0.77;71.91;95052.83;1525236;92;21647;-49
2022/02/10 05:05:09;;;;;;;207.72;123.40;;;;;;;0.82;71.53;95049.20;1525239;92;21069;-47
2022/02/10 05:23:52;;;;;;;191.32;108.42;;;;;;;0.99;72.42;95063.39;1529269;92;21148;-49
2022/02/10 05:31:58;;;;;;;199.97;115.05;;;;;;;0.84;71.85;95060.98;1510163;92;21747;-48
2022/02/10 05:33:59;;;;;;;198.65;113.60;;;;;;;0.70;72.01;95075.22;1527327;92;21191;-47
2022/02/10 05:36:28;;;;;;;200.90;116.05;;;;;;;0.68;72.47;95075.38;1526441;92;21507;-49
2022/02/10 05:39:05;;;;;;;227.82;128.30;;;;;;;0.65;72.15;95071.52;1526860;92;21132;-49
2022/02/10 05:54:51;;;;;;;184.22;104.58;;;;;;;1.01;73.33;95080.07;1511525;92;21588;-49
2022/02/10 05:57:26;;;;;;;154.57;89.37;;;;;;;1.00;73.35;95069.60;1523328;92;21223;-49
2022/02/10 06:00:08;;;;;;;126.95;70.97;;;;;;;0.98;73.73;95065.91;1523744;92;21595;-51
2022/02/10 06:48:54;;;;;;;263.70;150.55;;;;;;;1.26;73.56;95086.39;1526791;92;21054;-47
2022/02/10 06:51:18;;;;;;;194.80;109.10;;;;;;;1.34;73.81;95085.25;1524213;92;21049;-50
2022/02/10 06:53:52;;;;;;;269.43;150.87;;;;;;;1.47;73.98;95083.78;1514191;92;21109;-53
2022/02/10 07:09:59;;;;;;;290.35;170.38;;;;;;;1.38;72.33;95086.64;1508156;92;21522;-48
2022/02/10 07:51:32;;;;;;;494.17;308.75;;;;;;;2.68;72.71;95062.70;1501080;93;21261;-57
2022/02/10 07:53:54;;;;;;;438.35;271.07;;;;;;;2.74;72.31;95063.84;1496371;93;21061;-51
2022/02/10 08:56:52;;;;;;;155.12;93.58;;;;;;;6.61;68.44;95031.26;1527567;91;21837;-50
2022/02/10 09:04:10;;;;;;;166.75;98.60;;;;;;;7.31;66.98;95035.70;1503658;91;21119;-53
2022/02/10 09:14:38;;;;;;;145.70;85.53;;;;;;;8.39;64.00;95029.20;1534977;90;21156;-53
2022/02/10 09:23:12;;;;;;;163.30;97.92;;;;;;;9.45;61.19;95020.70;1534926;90;21150;-50
2022/02/10 09:47:38;;;;;;;98.65;54.83;;;;;;;10.68;56.19;95016.53;1532713;90;21581;-49
2022/02/10 10:02:56;;;;;;;8.70;7.05;;;;;;;12.07;48.98;94997.17;1527969;91;21588;-52
2022/02/10 10:05:30;;;;;;;8.25;6.58;;;;;;;12.19;48.43;94991.58;1514913;92;21129;-50
2022/02/10 10:13:36;;;;;;;9.90;6.80;;;;;;;13.44;45.39;94991.89;1534399;91;37594;-56
2022/02/10 10:16:06;;;;;;;11.65;8.05;;;;;;;13.69;44.40;94988.81;1538579;90;21185;-52
2022/02/10 10:21:28;;;;;;;8.25;6.97;;;;;;;14.68;42.23;94987.45;1546605;90;21126;-51
2022/02/10 10:49:53;;;;;;;8.95;5.10;;;;;;;16.60;38.03;94965.67;1535737;92;21100;-55
2022/02/10 10:52:28;;;;;;;10.90;7.17;;;;;;;16.58;38.40;94954.28;1547664;91;21163;-49
2022/02/10 10:57:31;;;;;;;8.48;6.10;;;;;;;17.39;37.61;94954.63;1521568;92;21392;-50
2022/02/10 11:39:26;;;;;;;7.87;6.37;;;;;;;20.46;29.78;94917.27;1546069;90;21977;-48
2022/02/10 11:42:22;;;;;;;5.95;4.83;;;;;;;20.34;30.19;94929.69;1539973;91;21096;-48
2022/02/10 12:39:23;;;;;;;4.72;4.05;;;;;;;22.81;26.47;94853.89;1533026;90;21178;-53
2022/02/10 13:24:30;;;;;;;7.00;5.47;;;;;;;23.09;24.91;94846.72;1535878;90;21073;-50
2022/02/10 13:27:32;;;;;;;8.45;5.92;;;;;;;23.06;25.01;94850.56;1539864;91;21104;-50
2022/02/10 13:29:40;;;;;;;6.12;5.10;;;;;;;23.24;24.75;94840.06;1533276;91;22375;-52
2022/02/10 14:18:06;;;;;;;12.25;7.95;;;;;;;21.99;25.61;94808.25;1539077;91;21682;-52
2022/02/10 14:25:50;;;;;;;11.43;8.38;;;;;;;21.86;25.70;94796.87;1525541;91;21188;-49
2022/02/10 14:28:08;;;;;;;13.90;8.87;;;;;;;21.67;25.92;94795.97;1511385;92;21151;-50
2022/02/10 14:30:35;;;;;;;11.73;6.70;;;;;;;21.55;26.06;94794.46;1558602;89;21184;-51
2022/02/10 14:33:02;;;;;;;8.10;5.92;;;;;;;21.43;26.08;94797.96;1534209;90;21221;-50
2022/02/10 14:35:35;;;;;;;8.20;5.58;;;;;;;20.95;26.46;94792.03;1531814;90;21155;-53
2022/02/10 14:41:07;;;;;;;16.55;11.30;;;;;;;20.69;26.89;94788.77;1560452;90;21132;-55
2022/02/10 15:54:27;;;;;;;101.90;60.23;;;;;;;6.40;54.88;94787.83;1535193;91;21441;-50
2022/02/10 16:18:50;;;;;;;131.22;74.72;;;;;;;4.78;60.58;94786.69;1543562;91;21477;-50
2022/02/10 16:21:31;;;;;;;118.57;67.62;;;;;;;4.65;61.12;94777.53;1561395;89;21138;-49
2022/02/10 16:23:58;;;;;;;95.62;57.45;;;;;;;4.51;61.88;94774.19;1536236;90;21009;-50
2022/02/10 16:26:23;;;;;;;86.30;57.25;;;;;;;4.34;62.12;94768.36;1537005;90;21091;-50
2022/02/10 16:28:49;;;;;;;95.20;54.67;;;;;;;4.20;62.64;94769.30;1537461;91;21176;-50
2022/02/10 16:31:15;;;;;;;142.72;79.53;;;;;;;4.18;62.91;94767.57;1529261;92;21028;-51
2022/02/10 16:33:43;;;;;;;91.10;51.48;;;;;;;4.08;63.43;94765.72;1522348;92;21091;-49
2022/02/10 16:36:17;;;;;;;83.40;49.33;;;;;;;4.01;63.67;94769.89;1540055;90;21359;-51
2022/02/10 16:38:45;;;;;;;62.60;39.27;;;;;;;3.96;63.78;94770.34;1537437;90;21545;-49
2022/02/10 16:41:13;;;;;;;120.70;66.42;;;;;;;3.90;63.75;94776.02;1546992;90;21085;-50
2022/02/10 16:43:40;;;;;;;164.37;88.45;;;;;;;3.82;64.36;94770.47;1540788;90;21167;-49
2022/02/10 16:46:09;;;;;;;189.87;103.05;;;;;;;3.67;64.67;94777.20;1530947;91;21382;-48
2022/02/10 16:48:37;;;;;;;195.90;106.70;;;;;;;3.58;65.25;94772.83;1545803;90;21056;-51
2022/02/10 16:51:08;;;;;;;182.35;103.95;;;;;;;3.51;65.66;94782.39;1544890;91;21188;-48
2022/02/10 16:53:32;;;;;;;284.98;138.88;;;;;;;3.51;65.99;94785.11;1531228;91;21141;-49
2022/02/10 16:56:06;;;;;;;356.05;162.75;;;;;;;3.50;65.98;94782.81;1550322;91;21171;-49
2022/02/10 16:58:36;;;;;;;255.45;126.30;;;;;;;3.42;65.99;94779.19;1546843;90;21041;-49
2022/02/10 17:04:18;;;;;;;;;;;;;;;;;;;;;
2022/02/10 17:19:58;;;;;;;347.52;163.12;;;;;;;2.84;68.35;94778.60;1542209;92;21030;-49
2022/02/10 17:27:22;;;;;;;;;;;;;;;;;;;;;
2022/02/10 17:32:59;;;;;;;217.87;109.12;;;;;;;2.79;68.39;94787.17;1552277;91;21591;-50
2022/02/10 17:46:04;;;;;;;246.95;127.82;;;;;;;2.48;68.96;94782.66;1537246;92;21078;-49
2022/02/10 17:53:57;;;;;;;306.10;156.22;;;;;;;2.18;69.83;94776.20;1554597;92;21101;-50
2022/02/10 17:56:24;;;;;;;286.55;144.32;;;;;;;2.10;69.88;94775.44;1553297;92;21133;-48
2022/02/10 17:58:52;;;;;;;305.70;158.25;;;;;;;2.07;70.16;94780.87;1553929;91;21074;-52
2022/02/10 18:01:20;;;;;;;284.13;147.78;;;;;;;2.06;70.23;94773.89;1535131;92;21084;-49
2022/02/10 18:03:47;;;;;;;268.15;140.40;;;;;;;2.04;70.48;94777.59;1552148;92;21020;-49
2022/02/10 18:06:31;;;;;;;294.67;157.27;;;;;;;1.98;70.75;94772.38;1555101;91;21002;-49
2022/02/10 18:14:26;;;;;;;224.30;119.53;;;;;;;1.85;71.16;94767.96;1554822;92;21052;-49
2022/02/10 18:17:06;;;;;;;207.43;111.00;;;;;;;1.79;71.39;94764.68;1552335;92;21495;-49
2022/02/10 18:27:20;;;;;;;210.38;109.20;;;;;;;1.98;71.16;94768.31;1511239;93;21474;-49
2022/02/10 18:29:48;;;;;;;225.82;121.80;;;;;;;1.87;71.03;94770.27;1525635;92;21137;-50
2022/02/10 18:36:31;;;;;;;347.07;178.15;;;;;;;1.82;71.19;94766.61;1511538;93;21894;-49
2022/02/10 18:38:24;;;;;;;362.25;187.53;;;;;;;1.72;71.19;94767.98;1508402;93;21468;-49
2022/02/10 19:07:37;;;;;;;452.58;246.05;;;;;;;1.49;72.66;94753.48;1530007;92;21015;-49
2022/02/10 19:09:55;;;;;;;486.30;266.42;;;;;;;1.62;72.44;94745.72;1493653;92;21114;-48
2022/02/10 19:12:27;;;;;;;485.78;266.65;;;;;;;1.67;71.95;94742.63;1519969;92;21199;-49
2022/02/10 19:14:55;;;;;;;460.80;246.18;;;;;;;1.62;71.70;94745.15;1529763;92;21933;-49
2022/02/10 19:17:24;;;;;;;491.27;267.40;;;;;;;1.57;71.83;94740.13;1526324;92;21551;-52
2022/02/10 19:19:51;;;;;;;524.27;283.52;;;;;;;1.51;71.70;94734.89;1528703;92;21077;-49
2022/02/10 19:22:19;;;;;;;486.08;268.40;;;;;;;1.42;71.70;94719.63;1527799;92;21039;-49
2022/02/10 19:24:46;;;;;;;489.87;266.95;;;;;;;1.30;71.96;94726.80;1527641;92;21534;-50
2022/02/10 19:27:16;;;;;;;449.85;236.50;;;;;;;1.29;72.18;94736.09;1529620;92;20979;-50
2022/02/10 19:29:44;;;;;;;452.60;241.50;;;;;;;1.29;72.28;94740.75;1511943;92;21451;-50
2022/02/10 19:32:16;;;;;;;443.48;241.38;;;;;;;1.25;72.46;94738.03;1527626;92;21195;-49
2022/02/10 19:34:42;;;;;;;442.87;242.03;;;;;;;1.25;72.55;94735.32;1527067;92;21042;-49
2022/02/10 19:37:10;;;;;;;441.75;244.22;;;;;;;1.25;72.56;94732.61;1529647;92;21156;-49
2022/02/10 19:39:41;;;;;;;484.37;258.93;;;;;;;1.30;72.73;94733.56;1529066;92;21195;-49
2022/02/10 19:42:07;;;;;;;487.92;256.52;;;;;;;1.36;72.63;94732.00;1528727;92;21097;-50
2022/02/10 19:44:37;;;;;;;433.00;222.58;;;;;;;1.37;72.83;94732.80;1528287;92;21074;-50
2022/02/10 19:47:05;;;;;;;433.20;225.25;;;;;;;1.42;72.79;94729.11;1529301;92;21025;-52
2022/02/10 19:49:36;;;;;;;451.50;237.63;;;;;;;1.41;72.69;94730.84;1527838;92;21177;-49
2022/02/10 19:52:03;;;;;;;425.70;227.15;;;;;;;1.41;72.66;94727.56;1526917;92;21217;-48
2022/02/10 19:54:36;;;;;;;449.45;241.20;;;;;;;1.40;72.90;94731.44;1527718;92;21049;-49
2022/02/10 19:56:58;;;;;;;440.23;238.18;;;;;;;1.44;73.09;94738.98;1530953;91;21069;-49
2022/02/10 19:59:28;;;;;;;475.85;264.42;;;;;;;1.52;72.96;94742.45;1495011;93;21108;-48
2022/02/10 20:01:54;;;;;;;466.10;256.02;;;;;;;1.48;72.77;94728.91;1528235;92;21092;-48
2022/02/10 20:04:21;;;;;;;434.10;241.05;;;;;;;1.48;72.72;94727.55;1529373;92;21876;-48
2022/02/10 20:06:49;;;;;;;415.10;227.45;;;;;;;1.46;72.86;94735.30;1512265;92;21115;-49
2022/02/10 20:09:16;;;;;;;446.05;237.88;;;;;;;1.54;73.25;94734.11;1530215;92;20999;-50
2022/02/10 20:11:43;;;;;;;462.62;247.00;;;;;;;1.70;73.44;94738.54;1527669;92;21125;-50
2022/02/10 20:14:10;;;;;;;414.27;218.48;;;;;;;1.81;72.75;94733.87;1528530;92;21135;-49
2022/02/10 20:16:37;;;;;;;400.50;216.93;;;;;;;1.87;72.59;94726.87;1511331;93;21173;-49
2022/02/10 20:19:08;;;;;;;392.23;205.20;;;;;;;1.91;72.72;94726.27;1475333;93;21751;-48
2022/02/10 20:21:36;;;;;;;359.45;191.53;;;;;;;2.00;72.67;94721.22;1531905;92;21604;-50
2022/02/10 20:24:04;;;;;;;322.27;162.95;;;;;;;2.13;72.24;94718.27;1527922;92;21086;-49
2022/02/10 20:26:31;;;;;;;371.73;190.03;;;;;;;2.18;72.13;94717.86;1526407;92;21643;-50
2022/02/10 20:28:58;;;;;;;388.98;208.97;;;;;;;2.14;71.96;94698.11;1526964;92;21170;-48
2022/02/10 20:31:24;;;;;;;391.82;213.55;;;;;;;2.14;72.10;94713.03;1518157;92;21142;-49
2022/02/10 20:33:52;;;;;;;379.10;200.03;;;;;;;2.15;71.93;94713.22;1519347;93;21031;-48
2022/02/10 20:36:19;;;;;;;369.77;194.52;;;;;;;2.13;72.13;94708.78;1508924;93;21631;-50
2022/02/10 20:38:49;;;;;;;370.33;192.37;;;;;;;2.19;72.15;94702.55;1515175;93;21518;-49
2022/02/10 20:41:17;;;;;;;350.10;190.10;;;;;;;2.24;71.99;94700.77;1515137;93;21266;-49
2022/02/10 20:43:46;;;;;;;424.27;235.97;;;;;;;2.25;71.68;94697.46;1507738;93;21175;-48
2022/02/10 20:46:16;;;;;;;349.77;193.90;;;;;;;2.23;72.05;94702.52;1506714;92;21139;-50
2022/02/10 20:48:43;;;;;;;350.55;187.35;;;;;;;2.30;71.85;94693.00;1515905;93;21073;-48
2022/02/10 20:51:13;;;;;;;394.95;206.78;;;;;;;2.34;71.97;94704.61;1514962;92;21105;-49
2022/02/10 20:53:42;;;;;;;362.77;187.22;;;;;;;2.31;71.71;94695.90;1515347;92;21289;-49
2022/02/10 20:56:11;;;;;;;406.02;218.82;;;;;;;2.33;71.81;94693.56;1520918;92;21124;-49
2022/02/10 20:58:39;;;;;;;385.68;204.87;;;;;;;2.27;71.30;94687.77;1515153;92;21183;-49
2022/02/10 21:01:10;;;;;;;389.10;205.98;;;;;;;2.20;71.61;94685.09;1516290;92;21605;-48
2022/02/10 21:03:36;;;;;;;419.43;222.48;;;;;;;2.21;71.74;94685.86;1516685;92;21033;-47
2022/02/10 21:11:08;;;;;;;395.55;209.00;;;;;;;2.24;72.04;94666.06;1527365;92;21039;-51
2022/02/10 21:13:37;;;;;;;413.37;224.27;;;;;;;2.21;71.96;94668.22;1526528;92;21208;-48
2022/02/10 21:16:05;;;;;;;384.23;205.32;;;;;;;2.11;72.08;94652.78;1526327;92;21149;-49
2022/02/10 21:18:33;;;;;;;375.95;198.82;;;;;;;2.00;72.40;94654.16;1528462;92;21112;-49
2022/02/10 21:21:05;;;;;;;346.93;178.35;;;;;;;1.97;73.08;94644.70;1527782;92;21054;-49
2022/02/10 21:23:36;;;;;;;301.23;155.30;;;;;;;1.94;73.63;94636.01;1528763;92;21050;-49
2022/02/10 21:26:01;;;;;;;286.52;146.60;;;;;;;1.99;74.44;94631.52;1528612;92;21108;-49
2022/02/10 21:28:35;;;;;;;199.60;100.15;;;;;;;2.16;74.81;94640.15;1527691;92;21550;-48
2022/02/10 21:31:03;;;;;;;165.40;85.42;;;;;;;2.28;75.09;94631.53;1526078;92;21983;-50
2022/02/10 21:38:37;;;;;;;32.33;19.73;;;;;;;3.48;76.42;94613.06;1528072;92;21401;-50
2022/02/10 22:08:37;;;;;;;25.80;15.65;;;;;;;5.33;66.75;94627.53;1525356;92;21168;-49
2022/02/10 22:23:27;;;;;;;8.75;7.85;;;;;;;6.44;65.39;94603.31;1527232;92;21189;-49
2022/02/10 22:25:52;;;;;;;8.28;7.15;;;;;;;6.60;64.73;94599.25;1527479;92;21596;-49
2022/02/10 22:28:29;;;;;;;7.95;7.15;;;;;;;6.77;63.83;94609.80;1529342;92;21603;-48
2022/02/10 22:33:46;;;;;;;10.35;8.13;;;;;;;7.07;62.63;94614.16;1513391;92;21058;-47
2022/02/10 22:35:55;;;;;;;8.98;8.08;;;;;;;7.19;62.24;94613.63;1513624;92;21218;-49
2022/02/10 22:38:22;;;;;;;9.83;8.85;;;;;;;7.29;61.98;94615.92;1550305;91;21091;-52
2022/02/10 22:41:32;;;;;;;13.93;9.73;;;;;;;7.33;61.60;94613.27;1527663;92;21087;-48
2022/02/10 22:43:22;;;;;;;15.65;14.05;;;;;;;7.41;61.38;94610.55;1525347;92;21636;-48
2022/02/10 22:45:48;;;;;;;12.75;11.15;;;;;;;7.43;61.31;94612.25;1524705;92;21149;-49
2022/02/10 22:48:15;;;;;;;9.43;8.45;;;;;;;7.41;61.26;94614.66;1512435;92;21792;-49
2022/02/10 22:50:41;;;;;;;9.98;8.98;;;;;;;7.42;61.25;94611.30;1528112;92;20995;-48
2022/02/10 22:53:08;;;;;;;9.45;8.55;;;;;;;7.44;61.20;94605.58;1527784;92;21044;-49
2022/02/10 22:55:37;;;;;;;10.45;9.35;;;;;;;7.50;61.06;94612.06;1488779;93;21549;-49
2022/02/10 22:58:04;;;;;;;9.43;8.50;;;;;;;7.56;60.82;94612.31;1505018;93;21036;-50
2022/02/10 23:00:33;;;;;;;11.70;10.08;;;;;;;7.58;60.64;94616.75;1528380;92;21183;-49
2022/02/10 23:03:00;;;;;;;10.13;8.80;;;;;;;7.60;60.31;94622.56;1528323;92;21619;-49
2022/02/10 23:05:26;;;;;;;11.78;9.35;;;;;;;7.61;60.29;94604.94;1526373;92;21620;-49
2022/02/10 23:07:57;;;;;;;9.80;8.88;;;;;;;7.59;60.17;94612.81;1526284;92;21373;-50
2022/02/10 23:13:12;;;;;;;11.90;9.18;;;;;;;7.59;60.05;94615.55;1526093;92;21200;-50
2022/02/10 23:15:39;;;;;;;10.68;9.68;;;;;;;7.58;59.97;94608.54;1528337;92;21714;-49
2022/02/10 23:18:09;;;;;;;11.45;9.93;;;;;;;7.57;60.07;94605.05;1510830;92;21042;-49
2022/02/10 23:20:36;;;;;;;10.23;9.15;;;;;;;7.60;60.07;94612.39;1527846;92;21073;-49
2022/02/10 23:23:05;;;;;;;13.72;10.85;;;;;;;7.64;59.75;94605.44;1530084;92;20990;-50
2022/02/10 23:25:33;;;;;;;10.78;9.40;;;;;;;7.65;59.58;94598.77;1528914;92;21195;-48
2022/02/10 23:28:00;;;;;;;10.70;9.60;;;;;;;7.67;59.49;94603.23;1528924;92;21106;-49
2022/02/10 23:30:27;;;;;;;12.37;9.98;;;;;;;7.69;59.43;94592.00;1511770;93;21452;-48
2022/02/10 23:32:59;;;;;;;10.20;9.20;;;;;;;7.73;59.37;94594.03;1526586;92;21049;-49
2022/02/10 23:38:02;;;;;;;9.88;8.30;;;;;;;7.74;59.23;94581.87;1529085;92;21247;-49
2022/02/10 23:40:35;;;;;;;9.25;8.35;;;;;;;7.72;59.25;94591.13;1512838;92;21099;-48
2022/02/10 23:43:00;;;;;;;11.83;9.23;;;;;;;7.70;59.34;94597.64;1527866;92;21022;-49
2022/02/10 23:45:28;;;;;;;9.73;8.78;;;;;;;7.65;59.34;94585.07;1510661;92;20998;-48
2022/02/10 23:47:55;;;;;;;14.60;10.48;;;;;;;7.62;59.38;94597.67;1511490;92;21123;-49
2022/02/10 23:50:26;;;;;;;18.32;10.70;;;;;;;7.58;59.46;94591.53;1527347;92;21168;-48
2022/02/10 23:52:57;;;;;;;17.52;12.05;;;;;;;7.54;59.48;94603.15;1507034;92;21175;-49
2022/02/10 23:55:28;;;;;;;18.70;12.60;;;;;;;7.48;59.53;94598.04;1526123;92;21132;-49
2022/02/10 23:58:01;;;;;;;11.60;9.03;;;;;;;7.40;59.78;94603.54;1526644;92;21609;-49
